createdAt,value
2023-01-07T00:00:02.689Z,12.90
2023-01-07T00:02:33.012Z,12.80
2023-01-07T00:05:03.131Z,12.50
2023-01-07T00:07:33.364Z,12.60
2023-01-07T00:10:03.455Z,12.50
2023-01-07T00:12:36.208Z,12.80
2023-01-07T00:15:06.501Z,12.70
2023-01-07T00:17:36.689Z,13.70
2023-01-07T00:20:07.444Z,12.50
2023-01-07T00:22:37.534Z,12.50
2023-01-07T00:25:08.390Z,12.50
2023-01-07T00:27:41.108Z,12.60
2023-01-07T00:30:13.163Z,12.40
2023-01-07T00:32:57.008Z,12.40
2023-01-07T00:35:27.147Z,12.50
2023-01-07T00:37:57.608Z,12.60
2023-01-07T00:40:27.690Z,12.70
2023-01-07T00:43:05.308Z,12.60
2023-01-07T00:45:36.241Z,12.50
2023-01-07T00:48:07.263Z,12.50
2023-01-07T00:50:41.533Z,12.50
2023-01-07T00:53:13.973Z,12.40
2023-01-07T00:55:44.139Z,12.60
2023-01-07T00:58:18.825Z,12.60
2023-01-07T01:00:49.387Z,12.60
2023-01-07T01:03:19.718Z,12.70
2023-01-07T01:05:49.862Z,12.60
2023-01-07T01:08:21.357Z,12.50
2023-01-07T01:10:51.610Z,12.80
2023-01-07T01:13:24.479Z,12.60
2023-01-07T01:15:54.680Z,12.60
2023-01-07T01:18:24.854Z,12.60
2023-01-07T01:20:55.155Z,12.60
2023-01-07T01:23:25.683Z,12.60
2023-01-07T01:25:55.785Z,12.60
2023-01-07T01:28:28.554Z,12.50
2023-01-07T01:30:58.709Z,12.50
2023-01-07T01:33:28.887Z,12.60
2023-01-07T01:35:58.928Z,12.50
2023-01-07T01:38:29.084Z,12.70
2023-01-07T01:40:59.152Z,12.70
2023-01-07T01:43:37.562Z,12.70
2023-01-07T01:46:14.241Z,12.70
2023-01-07T01:48:50.711Z,12.70
2023-01-07T01:51:25.191Z,12.80
2023-01-07T01:53:56.906Z,12.70
2023-01-07T01:56:31.030Z,12.70
2023-01-07T01:59:07.529Z,12.70
2023-01-07T02:01:39.336Z,12.70
2023-01-07T02:04:14.880Z,12.80
2023-01-07T02:06:50.715Z,12.70
2023-01-07T02:09:20.950Z,12.70
2023-01-07T02:12:02.756Z,12.70
2023-01-07T02:14:53.123Z,12.70
2023-01-07T02:17:31.223Z,12.70
2023-01-07T02:20:31.787Z,12.70
2023-01-07T02:23:34.314Z,12.70
2023-01-07T02:26:32.141Z,12.70
2023-01-07T02:29:39.571Z,12.80
2023-01-07T02:32:39.223Z,12.80
2023-01-07T02:35:19.706Z,12.60
2023-01-07T02:38:04.354Z,12.50
2023-01-07T02:40:42.018Z,12.60
2023-01-07T02:43:15.216Z,12.60
2023-01-07T02:45:51.051Z,12.70
2023-01-07T02:48:25.637Z,12.40
2023-01-07T02:50:55.774Z,12.70
2023-01-07T02:53:25.910Z,12.80
2023-01-07T02:56:07.397Z,12.40
2023-01-07T02:58:54.870Z,12.90
2023-01-07T03:01:55.047Z,12.80
2023-01-07T03:04:49.273Z,12.60
2023-01-07T03:07:31.100Z,12.70
2023-01-07T03:10:08.595Z,12.50
2023-01-07T03:12:44.236Z,12.30
2023-01-07T03:15:18.312Z,12.50
2023-01-07T03:17:55.787Z,12.50
2023-01-07T03:20:30.711Z,12.60
2023-01-07T03:23:02.108Z,12.60
2023-01-07T03:25:35.193Z,12.50
2023-01-07T03:28:07.108Z,12.50
2023-01-07T03:30:37.994Z,12.40
2023-01-07T03:33:14.574Z,12.30
2023-01-07T03:35:52.108Z,12.40
2023-01-07T03:38:25.609Z,12.30
2023-01-07T03:40:56.363Z,12.40
2023-01-07T03:43:24.295Z,12.40
2023-01-07T03:45:56.362Z,12.30
2023-01-07T03:48:26.682Z,12.30
2023-01-07T03:50:59.351Z,12.20
2023-01-07T03:53:29.502Z,12.40
2023-01-07T03:55:59.608Z,12.20
2023-01-07T03:58:29.741Z,12.20
2023-01-07T04:00:59.943Z,12.30
2023-01-07T04:03:30.158Z,12.50
2023-01-07T04:06:02.783Z,12.50
2023-01-07T04:08:33.035Z,12.60
2023-01-07T04:11:03.060Z,12.50
2023-01-07T04:13:33.153Z,12.50
2023-01-07T04:16:03.288Z,12.40
2023-01-07T04:18:33.365Z,12.50
2023-01-07T04:21:06.054Z,12.50
2023-01-07T04:23:36.511Z,12.40
2023-01-07T04:26:06.621Z,12.50
2023-01-07T04:28:36.828Z,12.60
2023-01-07T04:36:13.327Z,12.50
2023-01-07T04:38:43.414Z,12.40
2023-01-07T04:41:13.467Z,12.40
2023-01-07T04:43:43.634Z,12.50
2023-01-07T04:46:13.781Z,12.60
2023-01-07T04:48:43.980Z,12.50
2023-01-07T04:51:16.692Z,12.40
2023-01-07T04:53:46.928Z,12.50
2023-01-07T04:56:17.603Z,12.50
2023-01-07T04:58:48.014Z,12.50
2023-01-07T05:03:48.854Z,12.50
2023-01-07T05:06:21.804Z,12.40
2023-01-07T05:08:52.133Z,12.40
2023-01-07T05:11:22.988Z,12.50
2023-01-07T05:13:53.506Z,12.50
2023-01-07T05:16:23.740Z,12.50
2023-01-07T05:18:53.885Z,12.50
2023-01-07T05:21:26.624Z,12.50
2023-01-07T05:23:57.023Z,12.40
2023-01-07T05:26:27.135Z,12.50
2023-01-07T05:28:57.397Z,12.50
2023-01-07T05:31:27.592Z,12.60
2023-01-07T05:33:57.763Z,12.10
2023-01-07T05:36:30.424Z,12.60
2023-01-07T05:39:00.595Z,12.70
2023-01-07T05:41:30.606Z,12.70
2023-01-07T05:44:00.879Z,12.70
2023-01-07T05:46:31.111Z,12.50
2023-01-07T05:49:01.477Z,12.60
2023-01-07T05:51:34.146Z,12.70
2023-01-07T05:54:04.329Z,12.60
2023-01-07T05:56:34.346Z,11.80
2023-01-07T05:59:05.157Z,12.50
2023-01-07T06:01:35.258Z,12.50
2023-01-07T06:04:05.467Z,12.60
2023-01-07T06:06:38.175Z,12.70
2023-01-07T06:09:08.443Z,12.70
2023-01-07T06:11:38.510Z,12.60
2023-01-07T06:14:08.614Z,12.50
2023-01-07T06:16:38.691Z,12.40
2023-01-07T06:19:08.768Z,12.50
2023-01-07T06:21:41.701Z,12.60
2023-01-07T06:24:12.012Z,12.70
2023-01-07T06:26:42.159Z,12.70
2023-01-07T06:29:13.682Z,12.80
2023-01-07T06:31:43.810Z,12.80
2023-01-07T06:34:14.145Z,12.80
2023-01-07T06:36:46.829Z,12.90
2023-01-07T06:39:17.126Z,12.90
2023-01-07T06:41:47.283Z,12.90
2023-01-07T06:44:17.396Z,12.70
2023-01-07T06:46:47.511Z,12.70
2023-01-07T06:49:17.920Z,12.70
2023-01-07T06:51:50.645Z,12.70
2023-01-07T06:54:20.937Z,12.70
2023-01-07T06:56:51.475Z,12.60
2023-01-07T06:59:21.595Z,12.70
2023-01-07T07:01:51.789Z,13.00
2023-01-07T07:04:22.220Z,12.40
2023-01-07T07:06:54.936Z,12.70
2023-01-07T07:09:25.001Z,12.80
2023-01-07T07:11:55.118Z,12.70
2023-01-07T07:14:25.313Z,11.80
2023-01-07T07:16:55.361Z,12.60
2023-01-07T07:19:25.438Z,12.70
2023-01-07T07:21:58.167Z,12.70
2023-01-07T07:24:28.363Z,12.80
2023-01-07T07:27:00.053Z,12.80
2023-01-07T07:29:30.247Z,12.50
2023-01-07T07:32:00.355Z,12.60
2023-01-07T07:34:30.711Z,12.40
2023-01-07T07:37:03.366Z,12.60
2023-01-07T07:39:33.953Z,12.60
2023-01-07T07:42:06.535Z,12.60
2023-01-07T07:44:36.615Z,12.50
2023-01-07T07:47:07.163Z,12.30
2023-01-07T07:49:37.429Z,12.30
2023-01-07T07:52:10.243Z,12.30
2023-01-07T07:54:40.300Z,12.50
2023-01-07T07:57:10.404Z,12.60
2023-01-07T07:59:40.520Z,12.50
2023-01-07T08:02:12.083Z,12.50
2023-01-07T08:04:42.354Z,12.50
2023-01-07T08:07:15.655Z,12.50
2023-01-07T08:10:03.529Z,12.30
2023-01-07T08:15:04.216Z,12.50
2023-01-07T08:17:34.447Z,12.50
2023-01-07T08:20:04.562Z,12.50
2023-01-07T08:22:37.799Z,12.50
2023-01-07T08:25:08.708Z,12.70
2023-01-07T08:27:38.798Z,12.60
2023-01-07T08:30:10.209Z,12.50
2023-01-07T08:32:40.411Z,12.60
2023-01-07T08:35:11.975Z,12.70
2023-01-07T08:37:44.673Z,12.50
2023-01-07T08:40:15.996Z,12.50
2023-01-07T08:42:46.020Z,12.50
2023-01-07T08:45:16.237Z,12.60
2023-01-07T08:47:50.315Z,12.60
2023-01-07T08:50:20.595Z,13.40
2023-01-07T08:52:53.556Z,12.40
2023-01-07T08:55:24.082Z,12.60
2023-01-07T08:57:54.842Z,12.60
2023-01-07T09:00:25.325Z,12.70
2023-01-07T09:02:55.522Z,12.70
2023-01-07T09:05:25.674Z,12.80
2023-01-07T09:07:58.658Z,12.90
2023-01-07T09:10:28.818Z,12.90
2023-01-07T09:12:58.913Z,11.70
2023-01-07T09:15:29.333Z,12.70
2023-01-07T09:17:59.465Z,12.80
2023-01-07T09:20:29.625Z,13.00
2023-01-07T09:23:07.682Z,13.40
2023-01-07T09:25:37.857Z,13.60
2023-01-07T09:28:08.061Z,13.70
2023-01-07T09:30:45.557Z,13.80
2023-01-07T09:33:15.988Z,13.70
2023-01-07T09:35:47.317Z,13.60
2023-01-07T09:38:20.253Z,13.60
2023-01-07T09:40:53.352Z,13.60
2023-01-07T09:43:59.835Z,13.70
2023-01-07T09:46:22.794Z,13.50
2023-01-07T09:51:32.056Z,13.50
2023-01-07T09:54:08.403Z,13.70
2023-01-07T09:56:43.015Z,13.60
2023-01-07T09:59:15.028Z,13.90
2023-01-07T10:01:50.468Z,14.00
2023-01-07T10:04:35.114Z,14.10
2023-01-07T10:07:16.213Z,14.10
2023-01-07T10:10:04.684Z,14.10
2023-01-07T10:12:42.731Z,14.10
2023-01-07T10:15:24.877Z,14.00
2023-01-07T10:18:10.459Z,14.00
2023-01-07T10:20:50.178Z,14.00
2023-01-07T10:23:28.073Z,13.90
2023-01-07T10:26:03.382Z,13.90
2023-01-07T10:28:39.295Z,13.60
2023-01-07T10:31:13.801Z,14.30
2023-01-07T10:36:24.634Z,14.00
2023-01-07T10:39:03.506Z,13.90
2023-01-07T10:41:44.990Z,13.80
2023-01-07T10:44:42.795Z,13.70
2023-01-07T10:47:20.339Z,13.50
2023-01-07T10:50:08.416Z,13.60
2023-01-07T10:52:48.398Z,13.80
2023-01-07T10:56:07.299Z,13.70
2023-01-07T10:58:45.790Z,13.80
2023-01-07T11:01:23.900Z,13.70
2023-01-07T11:03:55.748Z,13.50
2023-01-07T11:06:37.142Z,13.40
2023-01-07T11:09:12.450Z,13.40
2023-01-07T11:11:43.746Z,13.60
2023-01-07T11:14:24.923Z,13.50
2023-01-07T11:17:00.304Z,13.40
2023-01-07T11:19:46.456Z,13.60
2023-01-07T11:22:35.093Z,13.60
2023-01-07T11:25:24.125Z,13.60
2023-01-07T11:27:54.355Z,13.60
2023-01-07T11:30:30.327Z,13.40
2023-01-07T11:33:04.996Z,13.50
2023-01-07T11:35:35.379Z,13.50
2023-01-07T11:38:05.503Z,13.40
2023-01-07T11:40:36.297Z,13.00
2023-01-07T11:43:23.514Z,13.40
2023-01-07T11:46:19.184Z,13.40
2023-01-07T11:48:57.584Z,13.50
2023-01-07T11:51:28.233Z,13.60
2023-01-07T11:54:00.742Z,13.40
2023-01-07T11:56:33.710Z,13.60
2023-01-07T11:59:26.696Z,13.60
2023-01-07T12:02:01.825Z,13.60
2023-01-07T12:04:34.146Z,13.60
2023-01-07T12:07:07.506Z,13.70
2023-01-07T12:09:40.223Z,13.70
2023-01-07T12:12:26.735Z,13.70
2023-01-07T12:14:57.864Z,13.70
2023-01-07T12:17:33.858Z,13.90
2023-01-07T12:20:26.344Z,14.00
2023-01-07T12:23:06.938Z,13.40
2023-01-07T12:25:47.555Z,13.60
2023-01-07T12:28:20.873Z,13.90
2023-01-07T12:31:17.453Z,13.80
2023-01-07T12:34:07.828Z,13.60
2023-01-07T12:36:49.502Z,13.60
2023-01-07T12:39:23.680Z,13.50
2023-01-07T12:42:01.456Z,13.70
2023-01-07T12:44:31.604Z,13.70
2023-01-07T12:47:30.808Z,13.90
2023-01-07T12:50:07.133Z,13.90
2023-01-07T12:52:44.242Z,13.70
2023-01-07T12:55:21.105Z,13.70
2023-01-07T12:58:09.293Z,15.20
2023-01-07T13:00:46.907Z,13.80
2023-01-07T13:03:34.305Z,13.70
2023-01-07T13:06:13.229Z,13.80
2023-01-07T13:08:48.628Z,13.70
2023-01-07T13:11:45.417Z,13.70
2023-01-07T13:14:24.377Z,13.60
2023-01-07T13:16:54.571Z,13.60
2023-01-07T13:19:25.553Z,13.70
2023-01-07T13:21:58.389Z,13.80
2023-01-07T13:24:55.898Z,13.80
2023-01-07T13:27:36.820Z,14.00
2023-01-07T13:30:21.317Z,13.90
2023-01-07T13:33:07.197Z,13.80
2023-01-07T13:35:51.497Z,14.80
2023-01-07T13:38:48.864Z,13.60
2023-01-07T13:41:40.795Z,13.90
2023-01-07T13:44:32.783Z,13.90
2023-01-07T13:47:07.384Z,13.90
2023-01-07T13:49:37.922Z,13.90
2023-01-07T13:52:20.793Z,14.00
2023-01-07T13:55:04.274Z,14.00
2023-01-07T13:57:47.958Z,13.90
2023-01-07T14:00:43.505Z,13.90
2023-01-07T14:03:38.587Z,13.80
2023-01-07T14:06:44.391Z,13.70
2023-01-07T14:09:26.297Z,13.60
2023-01-07T14:12:29.097Z,13.80
2023-01-07T14:15:32.241Z,13.40
2023-01-07T14:18:33.586Z,13.70
2023-01-07T14:21:13.874Z,13.70
2023-01-07T14:23:54.533Z,13.80
2023-01-07T14:26:31.901Z,13.80
2023-01-07T14:29:26.854Z,13.70
2023-01-07T14:32:28.009Z,13.60
2023-01-07T14:35:08.253Z,13.50
2023-01-07T14:37:42.263Z,13.30
2023-01-07T14:41:04.102Z,13.20
2023-01-07T14:44:06.765Z,13.20
2023-01-07T14:46:51.586Z,13.00
2023-01-07T14:49:50.974Z,13.10
2023-01-07T14:53:05.489Z,13.10
2023-01-07T14:55:47.844Z,13.00
2023-01-07T14:58:39.897Z,13.00
2023-01-07T15:01:39.509Z,13.10
2023-01-07T15:04:39.599Z,13.10
2023-01-07T15:07:20.048Z,13.10
2023-01-07T15:10:09.205Z,13.10
2023-01-07T15:12:53.026Z,13.10
2023-01-07T15:15:40.409Z,13.10
2023-01-07T15:18:15.008Z,13.00
2023-01-07T17:00:18.266Z,11.60
2023-01-07T17:02:56.167Z,11.60
2023-01-07T17:05:28.481Z,11.70
2023-01-07T17:08:00.265Z,11.60
2023-01-07T17:10:32.878Z,11.60
2023-01-07T17:13:05.167Z,11.50
2023-01-07T17:15:42.099Z,11.60
2023-01-07T17:18:30.462Z,11.50
2023-01-07T17:21:02.027Z,11.70
2023-01-07T17:23:42.715Z,11.80
2023-01-07T17:26:22.796Z,11.90
2023-01-07T17:28:55.490Z,11.90
2023-01-07T17:31:28.453Z,11.80
2023-01-07T17:33:59.114Z,11.70
2023-01-07T17:36:29.717Z,11.70
2023-01-07T17:38:59.862Z,11.80
2023-01-07T17:41:42.440Z,11.70
2023-01-07T17:44:14.739Z,11.60
2023-01-07T17:46:47.455Z,11.70
2023-01-07T17:49:17.730Z,11.80
2023-01-07T17:51:50.174Z,12.80
2023-01-07T17:54:25.293Z,11.80
2023-01-07T17:56:55.746Z,11.40
2023-01-07T17:59:26.609Z,11.70
2023-01-07T18:02:00.821Z,11.70
2023-01-07T18:04:31.058Z,11.90
2023-01-07T18:07:01.144Z,12.00
2023-01-07T18:09:31.227Z,12.00
2023-01-07T18:12:13.696Z,11.80
2023-01-07T18:14:43.984Z,11.80
2023-01-07T18:17:16.721Z,11.90
2023-01-07T18:19:47.404Z,11.90
2023-01-07T18:22:17.590Z,12.00
2023-01-07T18:24:47.716Z,12.00
2023-01-07T18:27:19.648Z,11.90
2023-01-07T18:29:49.801Z,11.90
2023-01-07T18:32:22.563Z,12.00
2023-01-07T18:34:52.703Z,12.00
2023-01-07T18:37:22.782Z,12.00
2023-01-07T18:39:52.921Z,12.00
2023-01-07T18:42:23.036Z,11.90
2023-01-07T18:44:53.167Z,11.90
2023-01-07T18:47:25.973Z,12.00
2023-01-07T18:49:56.162Z,11.80
2023-01-07T18:52:26.299Z,11.60
2023-01-07T18:54:56.490Z,11.70
2023-01-07T18:57:26.569Z,10.90
2023-01-07T18:59:56.814Z,11.60
2023-01-07T19:02:29.785Z,11.70
2023-01-07T19:04:59.927Z,11.80
2023-01-07T19:07:32.067Z,11.80
2023-01-07T19:10:02.192Z,11.70
2023-01-07T19:12:32.257Z,11.70
2023-01-07T19:15:02.734Z,11.70
2023-01-07T19:17:35.396Z,11.80
2023-01-07T19:20:05.503Z,11.90
2023-01-07T19:22:35.639Z,11.50
2023-01-07T19:25:05.943Z,10.60
2023-01-07T19:27:36.343Z,11.70
2023-01-07T19:30:07.112Z,11.40
2023-01-07T19:32:39.873Z,11.90
2023-01-07T19:35:11.095Z,11.70
2023-01-07T19:37:41.251Z,11.70
2023-01-07T19:40:12.618Z,12.20
2023-01-07T19:42:42.957Z,11.70
2023-01-07T19:45:13.840Z,11.70
2023-01-07T19:47:47.704Z,11.60
2023-01-07T19:50:18.543Z,11.60
2023-01-07T19:52:48.567Z,11.80
2023-01-07T19:55:18.851Z,11.90
2023-01-07T19:57:49.003Z,12.00
2023-01-07T20:00:20.183Z,12.60
2023-01-07T20:02:52.614Z,12.00
2023-01-07T20:05:26.601Z,11.90
2023-01-07T20:07:57.599Z,11.80
2023-01-07T20:10:27.718Z,11.80
2023-01-07T20:12:57.879Z,11.40
2023-01-07T20:15:28.601Z,11.70
2023-01-07T20:18:01.367Z,11.70
2023-01-07T20:20:31.568Z,11.80
2023-01-07T20:23:01.794Z,11.90
2023-01-07T20:25:31.922Z,12.10
2023-01-07T20:28:02.052Z,12.10
2023-01-07T20:30:32.312Z,12.00
2023-01-07T20:33:04.973Z,12.10
2023-01-07T20:35:35.222Z,12.10
2023-01-07T20:38:07.056Z,11.90
2023-01-07T20:40:37.186Z,11.90
2023-01-07T20:43:07.964Z,12.00
2023-01-07T20:45:39.265Z,11.90
2023-01-07T20:48:12.638Z,11.90
2023-01-07T20:50:42.921Z,12.00
2023-01-07T20:53:13.625Z,12.00
2023-01-07T20:55:43.737Z,12.00
2023-01-07T20:58:13.896Z,11.90
2023-01-07T21:00:44.228Z,11.80
2023-01-07T21:03:17.057Z,11.90
2023-01-07T21:05:47.240Z,11.70
2023-01-07T21:08:17.477Z,11.70
2023-01-07T21:10:47.648Z,11.80
2023-01-07T21:13:17.825Z,11.10
2023-01-07T21:15:48.224Z,11.90
2023-01-07T21:18:21.379Z,12.10
2023-01-07T21:20:51.545Z,12.10
2023-01-07T21:23:21.608Z,12.10
2023-01-07T21:25:52.466Z,12.10
2023-01-07T21:28:23.548Z,12.20
2023-01-07T21:30:53.785Z,12.30
2023-01-07T21:33:27.394Z,12.20
2023-01-07T21:35:57.628Z,12.20
2023-01-07T21:38:27.815Z,12.00
2023-01-07T21:40:58.038Z,11.90
2023-01-07T21:46:01.946Z,11.90
2023-01-07T21:51:06.519Z,12.10
2023-01-07T21:53:38.092Z,12.10
2023-01-07T21:56:09.444Z,11.90
2023-01-07T21:58:40.374Z,11.90
2023-01-07T22:01:11.667Z,12.00
2023-01-07T22:03:47.890Z,12.00
2023-01-07T22:06:22.746Z,12.10
2023-01-07T22:08:56.566Z,12.10
2023-01-07T22:11:27.272Z,12.00
2023-01-07T22:13:59.636Z,12.10
2023-01-07T22:16:31.508Z,12.20
2023-01-07T22:19:04.751Z,12.10
2023-01-07T22:21:34.932Z,11.70
2023-01-07T22:24:05.048Z,12.10
2023-01-07T22:26:36.196Z,12.10
2023-01-07T22:29:09.301Z,12.10
2023-01-07T22:31:40.409Z,12.40
2023-01-07T22:34:12.967Z,12.00
2023-01-07T22:36:49.487Z,12.20
2023-01-07T22:39:23.838Z,12.10
2023-01-07T22:41:57.419Z,12.10
2023-01-07T22:44:31.867Z,12.10
2023-01-07T22:47:02.416Z,12.30
2023-01-07T22:49:35.895Z,12.20
2023-01-07T22:52:07.644Z,12.20
2023-01-07T22:54:38.301Z,12.10
2023-01-07T22:57:10.545Z,12.10
2023-01-07T22:59:40.900Z,12.30
2023-01-07T23:02:11.371Z,12.30
2023-01-07T23:04:44.110Z,12.30
2023-01-07T23:07:14.467Z,12.30
2023-01-07T23:09:44.563Z,12.20
2023-01-07T23:12:15.468Z,12.20
2023-01-07T23:14:45.513Z,12.30
2023-01-07T23:17:15.631Z,12.30
2023-01-07T23:19:48.315Z,12.50
2023-01-07T23:22:18.452Z,12.30
2023-01-07T23:24:48.556Z,12.30
2023-01-07T23:27:18.750Z,12.20
2023-01-07T23:29:48.920Z,12.70
2023-01-07T23:34:52.076Z,12.30
2023-01-07T23:37:22.303Z,12.20
2023-01-07T23:39:52.356Z,12.30
2023-01-07T23:42:22.593Z,12.40
2023-01-07T23:44:52.665Z,12.30
2023-01-07T23:47:22.798Z,12.30
2023-01-07T23:49:55.514Z,12.60
2023-01-07T23:52:25.660Z,12.60
2023-01-07T23:54:55.731Z,12.50
2023-01-07T23:57:25.866Z,12.40
2023-01-07T23:59:56.083Z,12.20
